Aviation Digital Data Service (ADDS)

Output produced by METARs form (1252 UTC 19 April 2014)
found at http://aviationweather.gov/adds/metars/
 
KAEX 191146Z 1912/2012 VRB04KT P6SM FEW250 
     FM191500 08003KT P6SM SKC